Time;durP1;ratioP1;P1;durP2;ratioP2;P2;SDS_P1;SDS_P2;PMS_P1;PMS_P2;Temp;Humidity;BMP_temperature;BMP_pressure;BME280_temperature;BME280_humidity;BME280_pressure;Samples;Min_cycle;Max_cycle;Signal;HPM_P1;HPM_P2
2022/03/11 00:01:27;;;;;;;8.03;5.70;;;10.00;99.90;;;;;;1907204;74;21103;-87
2022/03/11 00:04:19;;;;;;;9.43;5.80;;;10.00;99.90;;;;;;1925972;74;21084;-87
2022/03/11 00:09:50;;;;;;;8.48;5.65;;;10.00;99.90;;;;;;1948140;72;22624;-86
2022/03/11 00:13:00;;;;;;;7.53;6.20;;;10.00;99.90;;;;;;1910012;73;21095;-88
2022/03/11 00:15:52;;;;;;;11.95;6.58;;;10.00;99.90;;;;;;1911634;74;21059;-86
2022/03/11 00:18:44;;;;;;;10.78;5.65;;;10.00;99.90;;;;;;1905515;75;21728;-86
2022/03/11 00:21:36;;;;;;;11.08;6.40;;;10.20;99.90;;;;;;1918301;74;21058;-86
2022/03/11 00:24:28;;;;;;;9.48;5.70;;;10.10;99.90;;;;;;1916472;74;21113;-87
2022/03/11 00:27:19;;;;;;;11.80;6.22;;;10.10;99.90;;;;;;1905495;75;21032;-87
2022/03/11 00:32:54;;;;;;;10.35;7.28;;;10.00;99.90;;;;;;1955423;72;22190;-86
2022/03/11 00:38:44;;;;;;;10.85;6.70;;;10.00;99.90;;;;;;1944133;72;22611;-85
2022/03/11 00:41:55;;;;;;;12.53;7.12;;;9.90;99.90;;;;;;1876297;75;21103;-87
2022/03/11 00:44:47;;;;;;;10.98;6.75;;;9.90;99.90;;;;;;1886073;75;21128;-87
2022/03/11 00:47:39;;;;;;;10.08;7.22;;;9.80;99.90;;;;;;1887610;75;21099;-87
2022/03/11 00:50:30;;;;;;;10.00;6.72;;;9.90;99.90;;;;;;1838914;77;21066;-87
2022/03/11 00:53:22;;;;;;;10.10;7.35;;;9.90;99.90;;;;;;1877280;75;21106;-86
2022/03/11 00:58:52;;;;;;;8.43;7.15;;;9.90;99.90;;;;;;1958267;72;22631;-86
2022/03/11 01:02:03;;;;;;;11.48;7.53;;;9.90;99.90;;;;;;1904575;75;21060;-88
2022/03/11 01:07:35;;;;;;;9.85;7.80;;;9.90;99.90;;;;;;1958100;72;22149;-86
2022/03/11 01:13:36;;;;;;;11.20;7.83;;;9.80;99.90;;;;;;1975943;72;22273;-88
2022/03/11 01:16:46;;;;;;;11.12;7.60;;;9.80;99.90;;;;;;1927958;73;21049;-87
2022/03/11 01:22:21;;;;;;;14.63;8.05;;;9.80;99.90;;;;;;1944088;72;22234;-86
2022/03/11 01:25:33;;;;;;;10.65;7.78;;;9.80;99.90;;;;;;1895508;75;21114;-87
2022/03/11 01:28:24;;;;;;;12.88;8.23;;;9.80;99.90;;;;;;1889872;75;21121;-86
2022/03/11 01:33:55;;;;;;;11.53;7.12;;;9.80;99.90;;;;;;1941308;72;22218;-85
2022/03/11 01:37:05;;;;;;;12.70;8.25;;;9.90;99.90;;;;;;1898882;75;21081;-88
2022/03/11 01:42:45;;;;;;;11.93;7.85;;;9.60;99.90;;;;;;1957529;72;22246;-85
2022/03/11 01:48:34;;;;;;;10.65;7.67;;;9.60;99.90;;;;;;1940540;72;22123;-86
2022/03/11 01:51:54;;;;;;;11.28;7.70;;;9.60;99.90;;;;;;1872384;76;21101;-87
2022/03/11 01:54:50;;;;;;;11.15;7.58;;;9.70;99.90;;;;;;1892464;75;21198;-86
2022/03/11 01:57:43;;;;;;;9.60;7.50;;;9.70;99.90;;;;;;1892113;75;21055;-86
2022/03/11 02:00:38;;;;;;;10.58;7.17;;;9.60;99.90;;;;;;1886867;75;21526;-86
2022/03/11 02:03:28;;;;;;;9.85;7.87;;;9.60;99.90;;;;;;1896494;75;21111;-86
2022/03/11 02:06:21;;;;;;;11.88;7.90;;;9.60;99.90;;;;;;1889207;75;21164;-86
2022/03/11 02:09:13;;;;;;;9.88;7.72;;;9.60;99.90;;;;;;1885025;75;21083;-86
2022/03/11 02:12:05;;;;;;;13.25;8.58;;;9.50;99.90;;;;;;1888354;75;21060;-87
2022/03/11 02:17:36;;;;;;;10.55;8.78;;;9.40;99.90;;;;;;1936224;72;22700;-87
2022/03/11 02:20:47;;;;;;;13.08;8.85;;;9.30;99.90;;;;;;1903371;75;21362;-87
2022/03/11 02:23:44;;;;;;;12.35;7.92;;;9.30;99.90;;;;;;1892152;75;21157;-86
2022/03/11 02:29:17;;;;;;;13.85;7.95;;;9.30;99.90;;;;;;1949391;72;22110;-88
2022/03/11 02:32:29;;;;;;;11.63;8.55;;;9.40;99.90;;;;;;1928185;74;21052;-87
2022/03/11 02:35:20;;;;;;;10.03;8.35;;;9.40;99.90;;;;;;1906671;74;21237;-87
2022/03/11 02:38:12;;;;;;;12.15;8.30;;;9.40;99.90;;;;;;1920423;74;21059;-86
2022/03/11 02:41:04;;;;;;;11.53;8.38;;;9.50;99.90;;;;;;1913379;74;21082;-86
2022/03/11 02:43:55;;;;;;;10.45;8.65;;;9.40;99.90;;;;;;1902427;75;21173;-86
2022/03/11 02:46:47;;;;;;;11.10;8.85;;;9.50;99.90;;;;;;1931164;73;21103;-86
2022/03/11 02:49:39;;;;;;;12.28;8.98;;;9.50;99.90;;;;;;1925898;74;21507;-86
2022/03/11 02:52:31;;;;;;;12.43;9.23;;;9.50;99.90;;;;;;1905400;75;21121;-86
2022/03/11 02:58:03;;;;;;;11.63;9.78;;;9.40;99.90;;;;;;1935561;72;22111;-86
2022/03/11 03:01:14;;;;;;;14.45;9.53;;;9.30;99.90;;;;;;1906248;75;21116;-86
2022/03/11 03:04:07;;;;;;;11.93;9.68;;;9.30;99.90;;;;;;1873491;75;21122;-86
2022/03/11 03:09:41;;;;;;;13.08;10.08;;;9.30;99.90;;;;;;1947108;72;22158;-87
2022/03/11 03:12:51;;;;;;;12.70;9.80;;;9.30;99.90;;;;;;1945240;73;21062;-87
2022/03/11 03:15:42;;;;;;;12.00;10.28;;;9.20;99.90;;;;;;1938945;73;21114;-87
2022/03/11 03:18:34;;;;;;;12.35;9.88;;;9.20;99.90;;;;;;1923280;74;21087;-87
2022/03/11 03:21:27;;;;;;;13.00;10.18;;;9.20;99.90;;;;;;1926915;73;21055;-89
2022/03/11 03:26:58;;;;;;;12.82;10.53;;;9.20;99.90;;;;;;1958523;72;22570;-86
2022/03/11 03:30:09;;;;;;;14.73;11.05;;;9.20;99.90;;;;;;1892968;75;21040;-88
2022/03/11 03:33:01;;;;;;;17.15;11.22;;;9.10;99.90;;;;;;1886968;75;21055;-87
2022/03/11 03:35:53;;;;;;;14.53;10.58;;;9.10;99.90;;;;;;1887234;75;21080;-87
2022/03/11 03:38:45;;;;;;;14.00;10.85;;;9.10;99.90;;;;;;1879892;75;21080;-86
2022/03/11 03:44:16;;;;;;;15.20;10.65;;;9.00;99.90;;;;;;1950936;72;22579;-85
2022/03/11 03:52:44;;;;;;;12.35;10.50;;;8.90;99.90;;;;;;1949351;72;22220;-88
2022/03/11 03:55:54;;;;;;;15.08;10.78;;;8.90;99.90;;;;;;1889521;75;21051;-87
2022/03/11 03:58:45;;;;;;;13.40;10.93;;;8.80;99.90;;;;;;1884247;75;21103;-87
2022/03/11 04:01:38;;;;;;;14.10;10.35;;;8.80;99.90;;;;;;1911649;75;21053;-87
2022/03/11 04:07:09;;;;;;;14.87;11.08;;;8.80;99.90;;;;;;1960411;72;22689;-86
2022/03/11 04:12:58;;;;;;;14.83;10.85;;;8.70;99.90;;;;;;1958359;72;22539;-85
2022/03/11 04:16:07;;;;;;;17.07;10.65;;;8.70;99.90;;;;;;1900886;75;21111;-87
2022/03/11 04:18:59;;;;;;;12.05;9.53;;;8.70;99.90;;;;;;1899653;75;21082;-87
2022/03/11 04:21:50;;;;;;;14.45;10.58;;;8.70;99.90;;;;;;1904903;75;21176;-86
2022/03/11 04:27:21;;;;;;;15.80;10.75;;;8.70;99.90;;;;;;1941776;72;22283;-87
2022/03/11 04:30:31;;;;;;;14.45;10.00;;;8.70;99.90;;;;;;1887309;75;21117;-87
2022/03/11 04:33:22;;;;;;;14.63;10.45;;;8.60;99.90;;;;;;1892736;75;21129;-87
2022/03/11 04:36:17;;;;;;;15.38;10.95;;;8.50;99.90;;;;;;1898881;75;21176;-87
2022/03/11 04:39:09;;;;;;;16.02;10.40;;;8.50;99.90;;;;;;1905833;75;21175;-87
2022/03/11 04:42:06;;;;;;;13.83;10.10;;;8.50;99.90;;;;;;1880899;75;21141;-87
2022/03/11 04:44:57;;;;;;;14.83;10.88;;;8.60;99.90;;;;;;1917644;75;21097;-89
2022/03/11 04:47:48;;;;;;;13.10;10.40;;;8.60;99.90;;;;;;1879007;76;21066;-87
2022/03/11 04:50:40;;;;;;;14.30;10.23;;;8.60;99.90;;;;;;1885943;75;21139;-87
2022/03/11 04:53:31;;;;;;;14.90;10.80;;;8.60;99.90;;;;;;1902619;75;21070;-87
2022/03/11 04:56:23;;;;;;;13.30;10.00;;;8.60;99.90;;;;;;1904800;75;21194;-87
2022/03/11 04:59:14;;;;;;;13.30;9.70;;;8.50;99.90;;;;;;1884831;76;21128;-88
2022/03/11 05:02:06;;;;;;;16.17;10.43;;;8.50;99.90;;;;;;1880252;76;21074;-87
2022/03/11 05:07:39;;;;;;;13.50;10.25;;;8.60;99.90;;;;;;1941541;72;22265;-85
2022/03/11 05:13:27;;;;;;;14.63;9.98;;;8.50;99.90;;;;;;1944972;72;22257;-88
2022/03/11 05:16:37;;;;;;;12.58;9.65;;;8.50;99.90;;;;;;1901982;75;21048;-87
2022/03/11 05:22:14;;;;;;;11.88;10.00;;;8.70;99.90;;;;;;1946295;72;20088;-85
2022/03/11 05:25:25;;;;;;;14.03;9.20;;;8.70;99.90;;;;;;1881895;75;21114;-87
2022/03/11 05:28:17;;;;;;;13.38;9.70;;;8.60;99.90;;;;;;1888910;75;21127;-87
2022/03/11 05:31:09;;;;;;;17.52;9.03;;;8.50;99.90;;;;;;1868973;77;21116;-87
2022/03/11 05:34:01;;;;;;;13.10;9.65;;;8.40;99.90;;;;;;1883814;75;21099;-86
2022/03/11 05:36:53;;;;;;;12.95;9.43;;;8.40;99.90;;;;;;1868071;77;21201;-86
2022/03/11 05:42:24;;;;;;;11.95;9.03;;;8.40;99.90;;;;;;1932360;72;22261;-85
2022/03/11 05:45:35;;;;;;;13.05;9.10;;;8.40;99.90;;;;;;1905825;75;21159;-87
2022/03/11 05:48:26;;;;;;;13.13;9.13;;;8.40;99.90;;;;;;1895387;75;21122;-86
2022/03/11 05:53:59;;;;;;;20.75;9.18;;;8.30;99.90;;;;;;1955972;72;22119;-85
2022/03/11 05:57:10;;;;;;;11.28;8.55;;;8.30;99.90;;;;;;1914843;75;21098;-86
2022/03/11 06:00:01;;;;;;;12.25;8.38;;;8.40;99.90;;;;;;1890018;75;21516;-87
2022/03/11 06:02:54;;;;;;;12.93;8.60;;;8.30;99.90;;;;;;1893206;75;21136;-87
2022/03/11 06:08:25;;;;;;;11.45;8.85;;;8.20;99.90;;;;;;1939798;72;22200;-87
2022/03/11 06:11:36;;;;;;;14.75;9.20;;;8.20;99.90;;;;;;1914617;74;21209;-87
2022/03/11 06:14:27;;;;;;;13.05;9.23;;;8.20;99.90;;;;;;1914646;74;21215;-86
2022/03/11 06:20:01;;;;;;;11.45;8.45;;;8.30;99.90;;;;;;1946904;72;22154;-87
2022/03/11 06:23:13;;;;;;;14.00;9.28;;;8.30;99.90;;;;;;1894363;75;21130;-86
2022/03/11 06:26:05;;;;;;;12.33;9.05;;;8.30;99.90;;;;;;1894737;75;21152;-86
2022/03/11 06:28:56;;;;;;;12.15;8.90;;;8.20;99.90;;;;;;1881755;75;21202;-88
2022/03/11 06:31:50;;;;;;;18.20;8.73;;;8.30;99.90;;;;;;1882183;75;21141;-88
2022/03/11 06:37:28;;;;;;;11.43;8.43;;;8.30;99.90;;;;;;1943426;72;22155;-87
2022/03/11 06:40:38;;;;;;;13.00;8.70;;;8.30;99.90;;;;;;1919796;73;21093;-88
2022/03/11 06:43:30;;;;;;;12.20;8.43;;;8.20;99.90;;;;;;1939779;73;21132;-86
2022/03/11 06:46:22;;;;;;;12.47;8.43;;;8.20;99.90;;;;;;1924865;73;21109;-86
2022/03/11 06:49:14;;;;;;;11.70;8.90;;;8.20;99.90;;;;;;1917691;75;21060;-93
2022/03/11 06:52:07;;;;;;;12.47;8.43;;;8.30;99.90;;;;;;1923865;73;21197;-76
2022/03/11 06:57:44;;;;;;;14.40;9.05;;;8.40;99.90;;;;;;1930256;72;22731;-77
2022/03/11 07:03:34;;;;;;;13.08;8.65;;;8.30;99.90;;;;;;1940398;72;22194;-75
2022/03/11 07:06:44;;;;;;;11.68;8.60;;;8.30;99.90;;;;;;1925285;73;21066;-77
2022/03/11 07:12:19;;;;;;;14.73;9.45;;;8.50;99.90;;;;;;1931532;72;22201;-78
2022/03/11 07:18:07;;;;;;;11.80;8.85;;;8.60;99.90;;;;;;1942424;72;22178;-77
2022/03/11 07:21:17;;;;;;;12.78;9.50;;;8.70;99.90;;;;;;1916756;73;21098;-76
2022/03/11 07:24:10;;;;;;;12.68;9.13;;;8.70;99.90;;;;;;1936755;73;21102;-77
2022/03/11 07:27:02;;;;;;;13.15;9.83;;;8.80;99.90;;;;;;1917992;73;21094;-77
2022/03/11 07:32:37;;;;;;;11.60;8.85;;;9.00;99.90;;;;;;1944260;72;22182;-77
2022/03/11 07:35:47;;;;;;;12.70;9.10;;;9.10;99.90;;;;;;1905009;75;21101;-76
2022/03/11 07:38:39;;;;;;;11.75;8.70;;;9.10;99.90;;;;;;1908463;75;21069;-76
2022/03/11 07:44:09;;;;;;;15.10;8.55;;;9.10;99.90;;;;;;1921896;72;22246;-79
2022/03/11 07:49:59;;;;;;;14.30;8.68;;;9.20;99.90;;;;;;1947474;72;22299;-80
2022/03/11 07:53:09;;;;;;;12.30;8.78;;;9.30;99.90;;;;;;1907486;75;21569;-79
2022/03/11 07:58:41;;;;;;;17.98;9.03;;;9.40;99.90;;;;;;1942859;72;22284;-81
2022/03/11 08:01:53;;;;;;;16.50;9.63;;;9.50;99.90;;;;;;1916044;74;21047;-79
2022/03/11 08:07:23;;;;;;;13.05;9.83;;;9.90;99.90;;;;;;1943202;72;22169;-80
2022/03/11 08:13:12;;;;;;;11.65;8.70;;;10.10;99.90;;;;;;1946693;72;22687;-80
2022/03/11 08:16:22;;;;;;;16.77;9.65;;;10.20;99.90;;;;;;1939038;73;21105;-79
2022/03/11 08:19:14;;;;;;;16.77;9.93;;;10.30;99.90;;;;;;1916981;75;21057;-79
2022/03/11 08:22:08;;;;;;;12.90;8.28;;;10.20;99.90;;;;;;1927434;73;21123;-78
2022/03/11 08:24:59;;;;;;;11.60;8.95;;;10.20;99.90;;;;;;1931958;73;21655;-78
2022/03/11 08:27:51;;;;;;;17.55;9.05;;;10.20;99.90;;;;;;1942399;73;21192;-79
2022/03/11 08:30:44;;;;;;;17.73;9.10;;;10.20;99.90;;;;;;1920576;73;21121;-79
2022/03/11 08:33:39;;;;;;;14.50;9.73;;;10.30;99.90;;;;;;1951296;73;21130;-79
2022/03/11 08:36:31;;;;;;;14.03;9.33;;;10.50;99.90;;;;;;1921492;73;21596;-80
2022/03/11 08:39:23;;;;;;;12.40;9.10;;;10.50;99.90;;;;;;1929640;73;21505;-80
2022/03/11 08:42:14;;;;;;;13.10;9.13;;;10.50;99.90;;;;;;1924342;73;21112;-79
2022/03/11 08:45:09;;;;;;;16.50;11.25;;;10.50;99.90;;;;;;1933056;73;21043;-79
2022/03/11 08:48:02;;;;;;;17.85;9.90;;;10.50;99.90;;;;;;1917758;75;21105;-78
2022/03/11 08:53:33;;;;;;;11.05;8.73;;;10.60;99.90;;;;;;1970018;72;23208;-80
2022/03/11 08:56:42;;;;;;;16.05;9.43;;;10.80;99.90;;;;;;1929185;74;21100;-79
2022/03/11 09:02:15;;;;;;;12.85;9.18;;;11.10;99.90;;;;;;1946811;72;22134;-80
2022/03/11 09:08:07;;;;;;;10.90;8.95;;;11.30;99.90;;;;;;1949103;72;22242;-80
2022/03/11 09:11:17;;;;;;;13.20;9.18;;;11.30;99.90;;;;;;1908554;75;21090;-80
2022/03/11 09:16:51;;;;;;;14.43;9.68;;;11.30;99.90;;;;;;1926632;72;22279;-80
2022/03/11 09:22:40;;;;;;;12.78;9.08;;;11.40;99.90;;;;;;1950988;72;22307;-80
2022/03/11 09:28:28;;;;;;;17.55;9.45;;;11.70;99.90;;;;;;1938991;72;22266;-80
2022/03/11 09:34:17;;;;;;;13.32;8.70;;;11.90;99.90;;;;;;1926326;72;22193;-80
2022/03/11 09:37:31;;;;;;;14.13;10.65;;;12.00;99.90;;;;;;1884320;75;21216;-79
2022/03/11 09:40:22;;;;;;;13.98;10.10;;;12.20;99.90;;;;;;1890133;75;21326;-79
2022/03/11 09:43:15;;;;;;;15.10;9.43;;;12.20;99.90;;;;;;1904845;75;21051;-79
2022/03/11 09:46:07;;;;;;;12.23;9.63;;;12.20;99.90;;;;;;1915195;75;21138;-80
2022/03/11 09:49:00;;;;;;;12.43;8.05;;;11.90;99.90;;;;;;1895315;75;21106;-79
2022/03/11 09:51:53;;;;;;;10.32;7.87;;;12.10;99.90;;;;;;1907323;75;21180;-79
2022/03/11 09:54:45;;;;;;;10.13;7.00;;;12.20;99.90;;;;;;1904482;75;21539;-79
2022/03/11 10:03:04;;;;;;;9.18;7.28;;;12.40;99.90;;;;;;1930312;72;22199;-80
2022/03/11 10:06:14;;;;;;;9.48;7.35;;;12.50;99.90;;;;;;1884481;75;21481;-80
2022/03/11 10:09:06;;;;;;;9.85;6.85;;;12.70;99.90;;;;;;1885998;74;21613;-79
2022/03/11 10:12:05;;;;;;;9.98;7.20;;;12.90;99.90;;;;;;1853167;77;21576;-80
2022/03/11 10:17:41;;;;;;;13.58;7.05;;;13.30;99.90;;;;;;1946553;72;22272;-81
2022/03/11 10:20:51;;;;;;;11.38;6.83;;;13.30;99.90;;;;;;1920077;74;21020;-79
2022/03/11 10:23:50;;;;;;;9.60;6.90;;;13.50;99.90;;;;;;1904692;75;21179;-79
2022/03/11 10:26:44;;;;;;;10.85;7.33;;;13.50;99.90;;;;;;1905210;75;21047;-79
2022/03/11 10:29:36;;;;;;;8.30;6.28;;;13.50;99.90;;;;;;1917069;74;21090;-78
2022/03/11 10:32:27;;;;;;;9.00;6.62;;;13.60;99.90;;;;;;1915876;74;21107;-79
2022/03/11 10:35:19;;;;;;;10.88;6.50;;;13.70;99.90;;;;;;1884344;75;21131;-79
2022/03/11 10:38:12;;;;;;;8.63;6.40;;;13.60;99.90;;;;;;1903893;75;21164;-79
2022/03/11 10:41:05;;;;;;;8.98;6.28;;;13.50;99.90;;;;;;1868824;75;21197;-79
2022/03/11 10:44:09;;;;;;;10.45;6.72;;;13.50;99.90;;;;;;1904740;75;21115;-80
2022/03/11 10:49:45;;;;;;;7.97;6.50;;;13.50;99.90;;;;;;1954100;72;22582;-80
2022/03/11 10:55:34;;;;;;;14.25;7.22;;;13.60;99.90;;;;;;1951501;72;22554;-80
2022/03/11 10:58:44;;;;;;;8.18;6.33;;;13.70;99.90;;;;;;1905258;75;21060;-80
2022/03/11 11:01:40;;;;;;;9.63;6.65;;;13.90;99.90;;;;;;1883002;75;21099;-81
2022/03/11 11:07:14;;;;;;;11.08;6.53;;;14.00;99.90;;;;;;1948813;72;22301;-77
2022/03/11 11:13:12;;;;;;;10.18;6.58;;;14.10;99.90;;;;;;1936412;72;22193;-78
2022/03/11 11:16:25;;;;;;;12.13;6.72;;;14.10;99.90;;;;;;1908407;75;21068;-78
2022/03/11 11:19:18;;;;;;;11.22;7.47;;;14.20;99.90;;;;;;1895512;75;21124;-79
2022/03/11 11:22:11;;;;;;;10.28;7.00;;;14.30;99.90;;;;;;1893328;75;21143;-79
2022/03/11 11:27:42;;;;;;;9.15;6.53;;;14.50;99.90;;;;;;1934946;72;22832;-78
2022/03/11 11:33:37;;;;;;;13.13;7.17;;;14.50;99.90;;;;;;1951980;72;22137;-80
2022/03/11 11:42:18;;;;;;;13.13;7.67;;;14.30;99.90;;;;;;1946586;72;22243;-80
2022/03/11 11:48:57;;;;;;;10.08;7.10;;;14.90;99.90;;;;;;1933360;72;22239;-78
2022/03/11 11:52:11;;;;;;;8.68;6.10;;;15.20;99.90;;;;;;1911747;75;21063;-79
2022/03/11 11:58:00;;;;;;;8.50;5.87;;;15.40;99.90;;;;;;1952088;72;22208;-78
2022/03/11 12:03:52;;;;;;;7.35;4.55;;;15.80;99.90;;;;;;1961862;72;22259;-78
2022/03/11 12:07:05;;;;;;;5.67;3.87;;;16.10;98.40;;;;;;1944577;73;21521;-80
2022/03/11 12:10:00;;;;;;;11.95;4.40;;;16.50;86.50;;;;;;1935310;73;21144;-80
2022/03/11 12:13:08;;;;;;;6.30;3.95;;;16.80;77.90;;;;;;1932805;73;21083;-79
2022/03/11 12:16:00;;;;;;;5.10;3.50;;;17.10;74.40;;;;;;1925119;73;21107;-78
2022/03/11 12:18:52;;;;;;;7.08;4.65;;;17.40;68.50;;;;;;1892087;75;21606;-78
2022/03/11 12:24:34;;;;;;;10.80;4.15;;;17.80;66.40;;;;;;1940580;72;22329;-79
2022/03/11 12:30:58;;;;;;;7.20;3.92;;;18.10;59.30;;;;;;1932235;72;22128;-78
2022/03/11 12:36:51;;;;;;;10.18;3.80;;;18.30;58.10;;;;;;1926409;72;22197;-80
2022/03/11 12:42:41;;;;;;;4.67;3.70;;;18.40;57.00;;;;;;1955575;72;22233;-78
2022/03/11 12:48:31;;;;;;;6.22;4.20;;;18.60;56.60;;;;;;1950237;72;22180;-79
2022/03/11 12:51:40;;;;;;;4.95;3.42;;;18.60;56.30;;;;;;1911953;75;21101;-81
2022/03/11 13:00:01;;;;;;;8.08;3.95;;;18.80;55.20;;;;;;1941798;72;22204;-81
2022/03/11 13:03:13;;;;;;;4.70;3.35;;;18.80;53.90;;;;;;1917523;75;21101;-80
2022/03/11 13:06:08;;;;;;;5.70;3.10;;;18.70;53.90;;;;;;1933098;73;21060;-79
2022/03/11 13:09:03;;;;;;;4.72;3.20;;;18.60;53.90;;;;;;1951147;73;21650;-79
2022/03/11 13:11:55;;;;;;;7.12;3.75;;;18.80;54.20;;;;;;1943706;73;21098;-79
2022/03/11 13:14:47;;;;;;;5.67;3.40;;;18.90;53.00;;;;;;1942378;73;21050;-79
2022/03/11 13:17:46;;;;;;;4.15;3.40;;;18.90;53.40;;;;;;1921582;73;21147;-80
2022/03/11 13:20:45;;;;;;;5.33;3.55;;;19.00;53.80;;;;;;1938914;73;21516;-79
2022/03/11 13:23:39;;;;;;;5.03;2.80;;;19.00;52.90;;;;;;1953894;73;21105;-79
2022/03/11 13:29:09;;;;;;;6.55;3.02;;;19.20;53.90;;;;;;1945658;72;22597;-79
2022/03/11 13:32:19;;;;;;;3.83;2.60;;;19.30;52.70;;;;;;1942067;73;21550;-79
2022/03/11 13:35:11;;;;;;;6.92;2.80;;;19.30;53.00;;;;;;1921425;73;21168;-79
2022/03/11 13:38:02;;;;;;;3.92;2.90;;;19.20;52.80;;;;;;1933944;73;21148;-79
2022/03/11 13:43:34;;;;;;;3.72;2.52;;;19.50;52.80;;;;;;1955542;72;22753;-79
2022/03/11 13:46:52;;;;;;;2.92;2.30;;;19.50;51.90;;;;;;1928677;73;21138;-80
2022/03/11 13:49:50;;;;;;;3.42;2.00;;;19.40;52.50;;;;;;1905649;74;21106;-80
2022/03/11 13:52:44;;;;;;;3.42;2.08;;;19.60;51.60;;;;;;1922980;74;21494;-79
2022/03/11 13:58:17;;;;;;;3.95;2.00;;;19.60;51.40;;;;;;1971583;72;22209;-80
2022/03/11 14:01:31;;;;;;;3.22;2.10;;;19.50;51.60;;;;;;1923976;73;21086;-79
2022/03/11 14:04:23;;;;;;;3.77;2.20;;;19.40;50.90;;;;;;1917384;75;21129;-80
2022/03/11 14:12:38;;;;;;;2.65;2.10;;;19.20;52.40;;;;;;1944820;72;22193;-79
2022/03/11 14:15:50;;;;;;;5.28;2.30;;;19.00;52.40;;;;;;1909017;75;21112;-79
2022/03/11 14:18:43;;;;;;;3.83;2.20;;;18.90;52.90;;;;;;1884741;76;21143;-79
2022/03/11 14:21:34;;;;;;;4.60;2.30;;;18.90;53.10;;;;;;1911116;75;21044;-80
2022/03/11 14:24:26;;;;;;;4.60;2.50;;;18.60;53.00;;;;;;1906946;75;21063;-80
2022/03/11 14:29:57;;;;;;;4.65;2.60;;;18.50;53.40;;;;;;1946808;72;23081;-79
2022/03/11 14:33:08;;;;;;;3.72;2.40;;;18.30;53.40;;;;;;1887963;75;21031;-79
2022/03/11 14:38:47;;;;;;;3.92;2.40;;;18.10;54.20;;;;;;1949047;72;22115;-80
2022/03/11 14:44:37;;;;;;;2.87;2.20;;;18.10;53.50;;;;;;1959678;72;22257;-79
2022/03/11 14:50:26;;;;;;;2.60;1.80;;;18.00;53.50;;;;;;1945022;72;22125;-79
2022/03/11 14:53:38;;;;;;;2.10;1.72;;;18.00;53.40;;;;;;1914363;75;21154;-79
2022/03/11 14:56:30;;;;;;;4.28;2.12;;;17.90;53.20;;;;;;1910228;75;21056;-80
2022/03/11 14:59:25;;;;;;;4.15;2.20;;;17.80;53.50;;;;;;1917469;75;21117;-80
2022/03/11 15:04:55;;;;;;;2.42;1.87;;;17.80;54.00;;;;;;1946221;72;22237;-79
2022/03/11 15:08:08;;;;;;;2.22;2.00;;;17.80;54.00;;;;;;1901254;75;21482;-80
2022/03/11 15:11:02;;;;;;;3.80;2.62;;;17.80;54.20;;;;;;1891453;75;21129;-80
2022/03/11 15:13:54;;;;;;;4.87;2.12;;;17.80;54.00;;;;;;1917627;75;21155;-80
2022/03/11 15:19:24;;;;;;;3.17;2.00;;;17.90;54.40;;;;;;1940886;72;22114;-79
2022/03/11 15:22:34;;;;;;;5.67;2.45;;;17.90;54.60;;;;;;1898545;75;21044;-79
2022/03/11 15:28:05;;;;;;;3.72;2.30;;;17.80;54.40;;;;;;1976062;72;22635;-79
2022/03/11 15:31:15;;;;;;;2.75;2.15;;;17.80;54.50;;;;;;1907413;74;21032;-79
2022/03/11 15:34:07;;;;;;;4.67;2.15;;;17.80;54.00;;;;;;1916993;74;21618;-79
2022/03/11 15:36:58;;;;;;;2.77;2.25;;;17.70;54.00;;;;;;1930821;74;21563;-80
2022/03/11 15:42:29;;;;;;;4.42;2.25;;;17.60;54.40;;;;;;1941076;72;22316;-80
2022/03/11 15:48:19;;;;;;;3.45;2.37;;;17.50;54.30;;;;;;1939753;72;22235;-80
2022/03/11 15:51:29;;;;;;;4.42;2.35;;;17.60;54.40;;;;;;1883717;75;21173;-80
2022/03/11 15:54:21;;;;;;;2.55;2.27;;;17.60;54.40;;;;;;1899855;75;21120;-80
2022/03/11 15:57:13;;;;;;;3.27;2.40;;;17.40;54.20;;;;;;1904169;75;21096;-80
2022/03/11 16:02:45;;;;;;;2.52;2.17;;;17.30;54.40;;;;;;1957837;72;22239;-80
2022/03/11 16:08:34;;;;;;;5.10;4.03;;;17.30;54.30;;;;;;1955815;72;22588;-79
2022/03/11 16:14:25;;;;;;;3.27;2.90;;;17.20;54.40;;;;;;1931826;72;22277;-79
2022/03/11 16:17:36;;;;;;;3.92;2.50;;;17.30;54.30;;;;;;1914442;74;21187;-80
2022/03/11 16:23:08;;;;;;;2.72;2.12;;;17.10;54.10;;;;;;1964690;72;22575;-80
2022/03/11 16:26:22;;;;;;;4.05;2.58;;;17.10;54.20;;;;;;1928324;73;21051;-80
2022/03/11 16:29:12;;;;;;;3.15;2.47;;;17.20;54.30;;;;;;1916772;73;21160;-80
2022/03/11 16:32:05;;;;;;;5.00;2.45;;;17.10;54.10;;;;;;1946552;73;21055;-80
2022/03/11 16:37:38;;;;;;;6.25;2.90;;;17.00;53.90;;;;;;1941868;72;22283;-79
2022/03/11 16:43:26;;;;;;;3.02;2.50;;;16.80;54.50;;;;;;1975389;72;22208;-79
2022/03/11 16:46:39;;;;;;;3.33;2.50;;;16.80;54.70;;;;;;1928831;74;21113;-81
2022/03/11 16:49:35;;;;;;;3.60;2.33;;;16.80;54.30;;;;;;1904989;75;21566;-80
2022/03/11 16:52:28;;;;;;;2.83;2.17;;;16.70;54.50;;;;;;1923762;74;21080;-81
2022/03/11 17:00:59;;;;;;;3.27;2.52;;;16.60;54.20;;;;;;1956491;72;22236;-81
2022/03/11 17:04:10;;;;;;;3.15;2.22;;;16.70;54.30;;;;;;1917342;75;21086;-81
2022/03/11 17:09:41;;;;;;;3.22;2.00;;;16.50;54.10;;;;;;1930597;72;22128;-80
2022/03/11 17:12:51;;;;;;;7.87;2.30;;;16.50;54.10;;;;;;1897149;75;21179;-80
2022/03/11 17:18:21;;;;;;;2.83;2.30;;;16.30;54.00;;;;;;1953112;72;22299;-80
2022/03/11 17:21:31;;;;;;;3.10;2.17;;;16.40;54.20;;;;;;1942497;73;21047;-81
2022/03/11 17:24:23;;;;;;;3.10;2.20;;;16.20;54.10;;;;;;1922231;73;21966;-80
2022/03/11 17:29:55;;;;;;;4.30;2.20;;;16.20;53.90;;;;;;1952074;72;22126;-79
2022/03/11 17:33:07;;;;;;;2.83;2.10;;;16.20;53.60;;;;;;1937966;72;21090;-81
2022/03/11 17:38:38;;;;;;;4.30;2.85;;;16.20;52.90;;;;;;1942571;72;22494;-79
2022/03/11 17:41:48;;;;;;;5.72;2.45;;;16.20;53.30;;;;;;1874779;75;21063;-81
2022/03/11 17:47:30;;;;;;;2.87;2.30;;;16.00;53.40;;;;;;1949118;72;22141;-81
2022/03/11 17:50:36;;;;;;;3.65;2.55;;;16.00;53.00;;;;;;1929851;73;21153;-90
2022/03/11 17:53:29;;;;;;;3.77;2.72;;;16.00;52.50;;;;;;1928053;73;21117;-89
2022/03/11 17:56:27;;;;;;;3.58;2.70;;;16.00;53.10;;;;;;1931796;73;21092;-89
2022/03/11 17:59:21;;;;;;;4.37;2.67;;;16.00;52.40;;;;;;1925696;73;21110;-90
2022/03/11 18:02:16;;;;;;;2.90;2.52;;;15.90;52.80;;;;;;1930730;73;21125;-90
2022/03/11 18:05:10;;;;;;;3.17;2.72;;;15.90;52.80;;;;;;1928136;73;21059;-89
2022/03/11 18:08:04;;;;;;;4.60;2.85;;;15.80;52.20;;;;;;1917715;75;21153;-89
2022/03/11 18:10:55;;;;;;;3.92;3.05;;;15.80;52.10;;;;;;1930942;73;21154;-89
2022/03/11 18:13:48;;;;;;;3.60;2.72;;;15.90;52.10;;;;;;1920290;73;21098;-90
2022/03/11 18:16:39;;;;;;;3.10;2.50;;;15.80;52.40;;;;;;1930823;73;21128;-89
2022/03/11 18:19:31;;;;;;;3.50;2.65;;;15.80;52.20;;;;;;1917826;73;21063;-89
2022/03/11 18:22:24;;;;;;;5.05;2.90;;;15.70;52.20;;;;;;1917972;75;21571;-89
2022/03/11 18:25:20;;;;;;;3.37;2.65;;;15.70;52.10;;;;;;1919214;73;21129;-88
2022/03/11 18:28:14;;;;;;;3.02;2.70;;;15.60;52.30;;;;;;1916032;75;21088;-89
2022/03/11 18:31:08;;;;;;;3.30;2.40;;;15.60;52.70;;;;;;1928854;73;21211;-89
2022/03/11 18:34:02;;;;;;;3.70;3.00;;;15.60;52.70;;;;;;1936795;73;21110;-89
2022/03/11 18:36:55;;;;;;;5.03;2.62;;;15.60;52.40;;;;;;1924214;73;21156;-88
2022/03/11 18:42:28;;;;;;;5.47;2.80;;;15.60;52.40;;;;;;1943483;72;22166;-91
2022/03/11 18:45:38;;;;;;;4.50;3.05;;;15.60;52.70;;;;;;1904501;75;21062;-89
2022/03/11 18:48:32;;;;;;;4.70;3.00;;;15.50;52.40;;;;;;1903092;74;21213;-89
2022/03/11 18:54:12;;;;;;;4.62;3.12;;;15.60;51.80;;;;;;1960930;72;22114;-89
2022/03/11 18:57:25;;;;;;;5.10;3.17;;;15.60;51.60;;;;;;1903432;74;21135;-89
2022/03/11 19:00:19;;;;;;;5.72;3.87;;;15.50;51.40;;;;;;1905059;75;21208;-88
2022/03/11 19:03:14;;;;;;;3.95;3.10;;;15.50;51.50;;;;;;1928073;74;21056;-89
2022/03/11 19:06:06;;;;;;;4.50;3.17;;;15.50;51.90;;;;;;1921168;74;21174;-89
2022/03/11 19:09:04;;;;;;;4.87;2.83;;;15.50;51.90;;;;;;1916657;73;21121;-90
2022/03/11 19:14:42;;;;;;;5.92;3.52;;;15.40;52.10;;;;;;1949291;72;22085;-88
2022/03/11 19:20:34;;;;;;;5.12;3.12;;;15.40;51.80;;;;;;1941584;72;22746;-88
2022/03/11 19:23:44;;;;;;;5.53;3.20;;;15.50;51.20;;;;;;1917721;75;21143;-90
2022/03/11 19:26:37;;;;;;;4.40;3.35;;;15.40;51.10;;;;;;1949440;73;21047;-89
2022/03/11 19:29:31;;;;;;;3.75;3.25;;;15.50;51.00;;;;;;1951599;73;21051;-90
2022/03/11 19:32:24;;;;;;;6.22;3.22;;;15.50;50.80;;;;;;1926645;73;21056;-90
2022/03/11 19:35:22;;;;;;;5.80;3.33;;;15.50;50.10;;;;;;1934521;73;21246;-89
2022/03/11 19:38:11;;;;;;;5.67;3.50;;;15.50;50.00;;;;;;1923968;73;21553;-90
2022/03/11 19:41:04;;;;;;;4.85;3.37;;;15.40;50.30;;;;;;1922359;73;21537;-89
2022/03/11 19:43:59;;;;;;;6.08;3.25;;;15.40;50.20;;;;;;1917592;75;21184;-89
2022/03/11 19:46:50;;;;;;;4.58;3.00;;;15.40;50.00;;;;;;1940263;73;21046;-91